Time;durP1;ratioP1;P1;durP2;ratioP2;P2;SDS_P1;SDS_P2;PMS_P1;PMS_P2;Temp;Humidity;BMP_temperature;BMP_pressure;BME280_temperature;BME280_humidity;BME280_pressure;Samples;Min_cycle;Max_cycle;Signal;HPM_P1;HPM_P2
2022/08/14 00:00:44;;;;;;;2.70;2.50;;;;;;;19.21;90.16;101093.91;21006355;28;20062;-78
2022/08/14 00:10:47;;;;;;;3.03;2.70;;;;;;;19.16;89.87;101074.59;21044842;28;20048;-79
2022/08/14 00:20:54;;;;;;;3.20;2.90;;;;;;;19.30;90.24;101089.50;21042108;28;20141;-79
2022/08/14 00:30:58;;;;;;;3.20;2.90;;;;;;;19.28;90.15;101079.72;21042615;28;20101;-79
2022/08/14 00:41:03;;;;;;;3.10;2.80;;;;;;;19.30;90.14;101070.63;21042026;28;20068;-79
2022/08/14 00:51:07;;;;;;;3.50;3.10;;;;;;;19.01;90.18;101022.91;21041691;28;20406;-79
2022/08/14 01:01:10;;;;;;;3.00;2.80;;;;;;;19.28;90.41;101054.59;21030217;28;20055;-79
2022/08/14 01:11:15;;;;;;;3.25;2.95;;;;;;;19.28;90.46;101054.59;21053814;28;20496;-78
2022/08/14 01:21:30;;;;;;;3.22;2.92;;;;;;;19.28;90.34;101044.63;21057789;28;20052;-79
2022/08/14 01:32:00;;;;;;;3.90;3.50;;;;;;;19.28;90.48;101041.09;21058052;28;20082;-78
2022/08/14 01:42:01;;;;;;;;;;;;;;;19.28;90.55;101036.53;21055242;28;20503;-79
2022/08/14 01:52:03;;;;;;;3.63;3.33;;;;;;;19.27;90.74;101023.19;20965527;28;19924;-79
2022/08/14 02:02:24;;;;;;;3.33;3.03;;;;;;;19.27;90.83;101009.69;21052437;28;20048;-79
2022/08/14 02:12:26;;;;;;;3.72;3.42;;;;;;;19.27;90.83;101001.59;21054598;28;20048;-78
2022/08/14 02:22:31;;;;;;;4.15;3.75;;;;;;;19.26;90.63;100979.13;21052263;28;20048;-78
2022/08/14 02:32:35;;;;;;;3.60;3.30;;;;;;;19.15;90.67;100960.41;21052450;28;20412;-78
2022/08/14 02:42:38;;;;;;;4.57;4.18;;;;;;;19.26;90.86;100968.34;21051731;28;20124;-79
2022/08/14 02:52:39;;;;;;;4.20;3.80;;;;;;;19.25;91.02;100950.44;21041684;28;20067;-78
2022/08/14 03:03:01;;;;;;;5.20;4.03;;;;;;;19.25;90.86;100946.91;21049114;28;20052;-79
2022/08/14 03:13:09;;;;;;;4.57;4.18;;;;;;;19.20;90.95;100931.13;21047957;28;20047;-79
2022/08/14 03:23:20;;;;;;;5.13;4.63;;;;;;;19.24;91.16;100932.53;21046958;28;20101;-79
2022/08/14 03:33:22;;;;;;;4.50;4.10;;;;;;;19.19;90.98;100918.63;21047590;28;20407;-79
2022/08/14 03:43:28;;;;;;;4.50;4.10;;;;;;;19.04;90.88;100887.72;21015110;28;20123;-79
2022/08/14 03:53:36;;;;;;;;;;;;;;;19.24;91.15;100908.25;21000377;28;20523;-79
2022/08/14 04:03:38;;;;;;;4.57;4.18;;;;;;;19.24;91.17;100910.13;21045766;28;19993;-78
2022/08/14 04:13:41;;;;;;;4.70;4.30;;;;;;;19.16;91.01;100888.38;21041923;28;20105;-79
2022/08/14 04:23:44;;;;;;;5.43;4.93;;;;;;;19.22;91.00;100902.16;20950025;28;20505;-78
2022/08/14 04:33:51;;;;;;;5.20;4.70;;;;;;;19.23;91.18;100901.16;20935492;28;20044;-79
2022/08/14 04:43:53;;;;;;;5.15;4.60;;;;;;;19.22;91.17;100902.16;20945962;28;20113;-79
2022/08/14 04:53:55;;;;;;;4.88;4.47;;;;;;;19.05;91.41;100873.22;20941116;28;20500;-79
2022/08/14 05:03:56;;;;;;;4.72;4.28;;;;;;;19.23;91.31;100903.03;20952423;28;20084;-79
2022/08/14 05:14:00;;;;;;;5.50;4.00;;;;;;;19.22;91.50;100899.44;20914708;28;20098;-79
2022/08/14 05:24:21;;;;;;;5.80;5.30;;;;;;;19.23;91.96;100898.47;20918428;28;20041;-78
2022/08/14 05:34:28;;;;;;;5.90;5.38;;;;;;;18.78;92.86;100813.59;20932398;28;20049;-79
2022/08/14 05:44:32;;;;;;;8.32;7.25;;;;;;;19.15;94.35;100867.78;20917249;28;20063;-79
2022/08/14 05:54:34;;;;;;;9.15;7.88;;;;;;;19.27;94.67;100882.84;20921890;28;20394;-79
2022/08/14 06:04:38;;;;;;;9.77;8.07;;;;;;;19.28;95.53;100866.47;20909817;28;20087;-80
2022/08/14 06:14:41;;;;;;;7.97;7.20;;;;;;;19.31;94.41;100873.44;20915905;28;20056;-80
2022/08/14 06:24:43;;;;;;;9.88;7.53;;;;;;;19.32;96.63;100853.56;20915609;28;20051;-79
2022/08/14 06:34:45;;;;;;;9.40;7.80;;;;;;;19.33;95.81;100846.28;20882169;28;20492;-79
2022/08/14 06:45:07;;;;;;;8.38;7.47;;;;;;;19.06;96.67;100793.97;20911610;28;20548;-78
2022/08/14 06:55:11;;;;;;;7.82;6.88;;;;;;;19.23;95.83;100816.66;20895097;28;20404;-78
2022/08/14 07:15:35;;;;;;;8.02;6.57;;;;;;;19.34;96.78;100837.19;20902868;28;20064;-78
2022/08/14 07:25:43;;;;;;;9.88;7.05;;;;;;;19.36;96.55;100844.16;20936328;28;20105;-78
2022/08/14 07:35:47;;;;;;;7.18;6.47;;;;;;;19.37;95.33;100848.56;20920871;28;20078;-78
2022/08/14 07:45:59;;;;;;;7.03;6.40;;;;;;;19.39;95.14;100834.91;20934339;28;20547;-78
2022/08/14 07:56:03;;;;;;;6.43;5.72;;;;;;;19.09;94.46;100791.00;20889123;28;20053;-78
2022/08/14 08:06:22;;;;;;;7.78;5.90;;;;;;;19.39;94.58;100816.88;20875248;28;20135;-76
2022/08/14 08:16:26;;;;;;;6.30;5.70;;;;;;;19.44;98.05;100815.56;20876237;28;20612;-77
2022/08/14 08:26:29;;;;;;;6.17;5.57;;;;;;;19.47;99.28;100813.44;20881235;28;20057;-78
2022/08/14 08:36:40;;;;;;;6.57;5.03;;;;;;;19.20;99.45;100739.53;20870327;28;20051;-78
2022/08/14 08:46:42;;;;;;;5.70;5.20;;;;;;;19.54;99.56;100775.88;20906679;28;20409;-78
2022/08/14 08:56:50;;;;;;;6.22;5.40;;;;;;;19.67;99.73;100781.78;20883653;28;20136;-79
2022/08/14 09:06:53;;;;;;;6.50;4.57;;;;;;;19.61;97.68;100749.13;20883106;28;20456;-79
2022/08/14 09:17:11;;;;;;;5.13;4.68;;;;;;;19.67;95.32;100748.50;20882902;28;20052;-78
2022/08/14 09:27:13;;;;;;;5.13;4.63;;;;;;;19.50;94.15;100732.13;20910972;28;20521;-79
2022/08/14 09:37:39;;;;;;;4.93;4.43;;;;;;;19.56;93.19;100723.41;20907860;28;20060;-78
2022/08/14 09:47:42;;;;;;;5.47;4.82;;;;;;;19.63;92.71;100755.22;20897954;28;20049;-78
2022/08/14 09:57:45;;;;;;;5.47;4.97;;;;;;;19.56;92.53;100719.84;20894881;28;20638;-78
2022/08/14 10:07:50;;;;;;;4.95;4.55;;;;;;;19.61;92.33;100716.72;20869627;28;20049;-79
2022/08/14 10:18:18;;;;;;;5.13;4.63;;;;;;;19.59;92.39;100706.06;20911691;28;20059;-78
2022/08/14 10:28:20;;;;;;;4.20;3.83;;;;;;;19.60;92.31;100693.41;20920383;28;20148;-79
2022/08/14 10:38:42;;;;;;;4.75;4.35;;;;;;;19.60;92.22;100674.50;20894844;28;20055;-78
2022/08/14 10:49:01;;;;;;;4.47;4.07;;;;;;;19.53;92.81;100642.72;20919941;28;20057;-79
2022/08/14 10:59:07;;;;;;;4.63;4.22;;;;;;;19.32;92.78;100596.25;20919262;28;20052;-79
2022/08/14 11:09:13;;;;;;;4.68;4.28;;;;;;;19.37;92.92;100586.72;20903286;28;20118;-79
2022/08/14 11:19:18;;;;;;;4.75;4.32;;;;;;;19.60;93.40;100612.41;20906797;28;20543;-79
2022/08/14 11:29:24;;;;;;;4.60;4.20;;;;;;;19.59;92.43;100600.75;20897913;28;20132;-79
2022/08/14 11:39:28;;;;;;;4.60;4.20;;;;;;;19.47;91.96;100581.25;20894791;28;20052;-79
2022/08/14 11:49:37;;;;;;;5.13;4.15;;;;;;;19.45;91.94;100550.88;20905130;28;20052;-79
2022/08/14 11:59:39;;;;;;;4.70;4.30;;;;;;;19.60;91.53;100580.00;20905281;28;20064;-80
2022/08/14 12:09:46;;;;;;;4.53;4.10;;;;;;;19.23;91.66;100512.53;20902445;28;20433;-81
2022/08/14 12:19:55;;;;;;;5.03;4.53;;;;;;;19.62;95.59;100557.22;20904640;28;20063;-79
2022/08/14 12:29:58;;;;;;;5.43;4.23;;;;;;;19.69;98.13;100541.25;20866521;28;20056;-77
2022/08/14 12:40:14;;;;;;;6.38;4.97;;;;;;;19.77;100.00;100526.97;20874797;28;20508;-78
2022/08/14 12:50:21;;;;;;;5.18;4.38;;;;;;;19.73;100.00;100521.03;20895483;28;20041;-79
2022/08/14 13:00:24;;;;;;;5.90;4.28;;;;;;;19.70;100.00;100483.53;20878000;28;20053;-78
2022/08/14 13:10:26;;;;;;;5.55;4.85;;;;;;;19.99;100.00;100501.31;20921374;28;20055;-78
2022/08/14 13:20:48;;;;;;;5.40;4.70;;;;;;;20.04;100.00;100501.69;20932732;28;20057;-79
2022/08/14 13:30:59;;;;;;;7.32;4.43;;;;;;;20.07;100.00;100482.44;20890735;28;20074;-80
2022/08/14 13:41:02;;;;;;;6.05;4.65;;;;;;;20.10;99.59;100475.84;20900676;28;20048;-80
2022/08/14 13:51:06;;;;;;;6.55;5.10;;;;;;;19.97;99.58;100441.19;20902851;28;20041;-80
2022/08/14 14:01:16;;;;;;;5.88;5.25;;;;;;;20.02;99.78;100443.38;20900088;28;20076;-79
2022/08/14 14:11:22;;;;;;;6.18;5.15;;;;;;;19.68;100.00;100370.28;20899975;28;20052;-79
2022/08/14 14:21:26;;;;;;;5.70;4.97;;;;;;;19.97;99.97;100403.38;20895676;28;20056;-80
2022/08/14 14:31:29;;;;;;;5.53;4.93;;;;;;;19.54;99.95;100333.94;20877148;28;20195;-78
2022/08/14 14:41:40;;;;;;;7.75;5.10;;;;;;;19.81;100.00;100356.31;20887942;28;20127;-79
2022/08/14 14:51:45;;;;;;;5.75;5.15;;;;;;;19.92;99.96;100367.88;20907335;28;20057;-78
2022/08/14 15:01:59;;;;;;;5.75;4.85;;;;;;;19.68;99.90;100318.97;20891445;28;20078;-79
2022/08/14 15:12:01;;;;;;;5.90;5.30;;;;;;;19.92;99.53;100352.50;20889017;28;20688;-79
2022/08/14 15:22:23;;;;;;;6.82;5.40;;;;;;;19.79;99.53;100331.31;20888726;28;20067;-79
2022/08/14 15:32:25;;;;;;;5.50;5.00;;;;;;;19.93;99.55;100340.69;20876685;28;20448;-80
2022/08/14 15:42:33;;;;;;;5.78;5.18;;;;;;;19.94;99.64;100350.50;20884389;28;20060;-79
2022/08/14 15:52:35;;;;;;;5.88;5.28;;;;;;;19.96;99.60;100331.44;20874929;28;20059;-79
2022/08/14 16:02:43;;;;;;;5.45;4.90;;;;;;;19.94;99.68;100322.66;20871284;28;20071;-78
2022/08/14 16:12:45;;;;;;;5.90;5.30;;;;;;;19.96;99.48;100326.03;20874590;28;20666;-79
2022/08/14 16:22:56;;;;;;;5.28;4.78;;;;;;;19.95;99.63;100311.66;20878867;28;20075;-78
2022/08/14 16:33:14;;;;;;;6.65;5.00;;;;;;;19.96;99.65;100304.41;20908635;28;20060;-79
2022/08/14 16:43:37;;;;;;;5.20;4.55;;;;;;;19.93;99.65;100283.13;20876220;28;20558;-79
2022/08/14 16:53:42;;;;;;;5.70;5.20;;;;;;;19.97;99.72;100289.91;20853546;28;1073788;-78
2022/08/14 17:04:01;;;;;;;5.15;4.65;;;;;;;19.90;99.90;100272.63;20920720;28;20167;-78
2022/08/14 17:14:05;;;;;;;5.70;4.82;;;;;;;19.69;100.00;100222.59;20899705;28;20053;-81
2022/08/14 17:24:12;;;;;;;5.57;5.07;;;;;;;19.96;99.08;100266.59;20891557;28;20048;-80
2022/08/14 17:34:51;;;;;;;5.63;4.70;;;;;;;19.65;98.59;100215.84;20991191;28;20055;-80
2022/08/14 17:44:59;;;;;;;5.30;4.78;;;;;;;19.70;98.70;100221.59;21039507;28;20052;-80
2022/08/14 17:55:03;;;;;;;6.45;5.13;;;;;;;19.89;98.97;100257.44;21053196;28;20044;-80
2022/08/14 18:05:07;;;;;;;6.20;4.87;;;;;;;19.82;99.08;100257.25;21053408;28;20055;-80
2022/08/14 18:15:13;;;;;;;5.65;4.72;;;;;;;19.74;99.26;100247.25;21035892;28;20105;-80
2022/08/14 18:25:18;;;;;;;5.55;5.05;;;;;;;19.82;99.74;100259.94;21035952;28;20123;-80
2022/08/14 18:35:39;;;;;;;5.80;5.13;;;;;;;19.81;99.86;100261.78;21033951;28;20058;-80
2022/08/14 18:45:59;;;;;;;5.85;4.90;;;;;;;19.80;99.85;100261.97;21051363;28;20052;-80
2022/08/14 18:56:01;;;;;;;5.60;5.00;;;;;;;19.78;99.97;100254.00;21002800;28;20054;-80
2022/08/14 19:06:10;;;;;;;5.40;4.82;;;;;;;19.77;100.00;100252.31;20901876;28;20497;-79
2022/08/14 19:16:19;;;;;;;5.68;5.10;;;;;;;19.77;100.00;100265.81;20904530;28;20574;-79
2022/08/14 19:26:27;;;;;;;5.28;4.78;;;;;;;19.26;100.00;100188.38;20948837;28;20057;-79
2022/08/14 19:36:52;;;;;;;7.30;4.97;;;;;;;19.75;100.00;100257.03;20976316;28;20060;-80
2022/08/14 19:47:09;;;;;;;5.45;4.60;;;;;;;19.25;100.00;100170.50;20929750;28;20345;-79
2022/08/14 19:57:16;;;;;;;5.55;4.97;;;;;;;19.74;100.00;100249.94;20948115;28;20458;-79
2022/08/14 20:07:29;;;;;;;6.47;5.00;;;;;;;19.73;100.00;100240.16;20960721;28;20048;-80
2022/08/14 20:17:51;;;;;;;5.78;5.10;;;;;;;19.53;100.00;100212.59;20955176;28;20051;-80
2022/08/14 20:27:53;;;;;;;5.78;5.18;;;;;;;19.71;100.00;100237.63;20972860;28;20688;-79
2022/08/14 20:38:03;;;;;;;5.72;5.13;;;;;;;19.72;100.00;100238.47;21043736;28;20088;-79
2022/08/14 20:48:27;;;;;;;5.28;4.78;;;;;;;19.70;100.00;100240.47;21042898;28;20076;-81
2022/08/14 20:58:49;;;;;;;6.35;4.90;;;;;;;19.68;100.00;100247.91;21042127;28;20048;-80
2022/08/14 21:08:56;;;;;;;5.43;4.93;;;;;;;19.62;100.00;100211.59;21044042;28;20675;-79
2022/08/14 21:18:58;;;;;;;5.32;4.82;;;;;;;19.51;100.00;100203.81;21040756;28;20128;-79
2022/08/14 21:29:02;;;;;;;5.87;5.27;;;;;;;19.68;100.00;100221.75;21034173;28;20071;-79
2022/08/14 21:39:10;;;;;;;5.75;5.18;;;;;;;19.68;100.00;100220.91;21057530;28;20039;-79
2022/08/14 21:49:15;;;;;;;6.53;5.60;;;;;;;19.66;100.00;100218.34;21062106;28;20097;-79
2022/08/14 21:59:21;;;;;;;6.20;5.60;;;;;;;19.48;100.00;100183.41;21049267;28;20063;-79
2022/08/14 22:09:24;;;;;;;6.15;5.55;;;;;;;19.56;100.00;100191.53;21050833;28;20104;-79
2022/08/14 22:19:37;;;;;;;6.53;5.45;;;;;;;19.56;100.00;100183.41;21036972;28;20047;-79
2022/08/14 22:29:55;;;;;;;6.07;5.47;;;;;;;19.64;100.00;100187.97;21046378;28;20052;-80
2022/08/14 22:39:58;;;;;;;4.43;4.03;;;;;;;19.66;100.00;100185.13;21052209;28;20145;-80
2022/08/14 22:50:20;;;;;;;6.05;5.45;;;;;;;19.64;100.00;100189.84;21035673;28;20381;-79
2022/08/14 23:00:32;;;;;;;5.95;5.35;;;;;;;19.55;100.00;100167.38;21041930;28;20064;-80
2022/08/14 23:10:34;;;;;;;6.07;5.40;;;;;;;19.62;100.00;100172.97;21059381;28;20492;-80
2022/08/14 23:20:35;;;;;;;6.47;5.88;;;;;;;19.63;100.00;100169.25;21031919;28;20062;-80
2022/08/14 23:30:39;;;;;;;6.03;5.43;;;;;;;19.62;100.00;100151.38;21038983;28;20048;-80
2022/08/14 23:40:49;;;;;;;6.18;5.57;;;;;;;19.23;100.00;100094.25;21045687;28;20044;-79
2022/08/14 23:50:51;;;;;;;6.60;5.90;;;;;;;19.23;100.00;100082.63;21033151;28;20068;-80
